sensor_id;sensor_type;location;lat;lon;timestamp;P1;durP1;ratioP1;P2;durP2;ratioP2
55784;SDS011;41709;52.536;5.688;2023-08-12T00:00:26;5.15;;;2.72;;
55784;SDS011;41709;52.536;5.688;2023-08-12T00:02:52;5.13;;;2.97;;
55784;SDS011;41709;52.536;5.688;2023-08-12T00:05:18;5.32;;;3.00;;
55784;SDS011;41709;52.536;5.688;2023-08-12T00:07:43;4.20;;;2.58;;
55784;SDS011;41709;52.536;5.688;2023-08-12T00:10:10;6.80;;;3.03;;
55784;SDS011;41709;52.536;5.688;2023-08-12T00:12:37;5.55;;;3.00;;
55784;SDS011;41709;52.536;5.688;2023-08-12T00:15:03;6.43;;;3.08;;
55784;SDS011;41709;52.536;5.688;2023-08-12T00:17:31;6.87;;;3.00;;
55784;SDS011;41709;52.536;5.688;2023-08-12T00:19:57;8.15;;;3.22;;
55784;SDS011;41709;52.536;5.688;2023-08-12T00:22:23;5.38;;;2.58;;
55784;SDS011;41709;52.536;5.688;2023-08-12T00:24:49;4.47;;;3.10;;
55784;SDS011;41709;52.536;5.688;2023-08-12T00:27:14;3.53;;;2.85;;
55784;SDS011;41709;52.536;5.688;2023-08-12T00:29:40;5.47;;;3.15;;
55784;SDS011;41709;52.536;5.688;2023-08-12T00:32:05;5.25;;;3.00;;
55784;SDS011;41709;52.536;5.688;2023-08-12T00:34:33;5.07;;;2.92;;
55784;SDS011;41709;52.536;5.688;2023-08-12T00:36:59;5.20;;;2.88;;
55784;SDS011;41709;52.536;5.688;2023-08-12T00:39:24;5.25;;;3.28;;
55784;SDS011;41709;52.536;5.688;2023-08-12T00:41:50;5.95;;;3.33;;
55784;SDS011;41709;52.536;5.688;2023-08-12T00:44:15;4.97;;;3.58;;
55784;SDS011;41709;52.536;5.688;2023-08-12T00:46:41;5.88;;;3.65;;
55784;SDS011;41709;52.536;5.688;2023-08-12T00:49:08;5.05;;;3.30;;
55784;SDS011;41709;52.536;5.688;2023-08-12T00:51:35;7.20;;;3.75;;
55784;SDS011;41709;52.536;5.688;2023-08-12T00:54:05;7.97;;;4.68;;
55784;SDS011;41709;52.536;5.688;2023-08-12T00:56:31;6.35;;;3.65;;
55784;SDS011;41709;52.536;5.688;2023-08-12T00:59:00;7.20;;;4.18;;
55784;SDS011;41709;52.536;5.688;2023-08-12T01:01:29;7.88;;;3.97;;
55784;SDS011;41709;52.536;5.688;2023-08-12T01:03:55;6.10;;;3.85;;
55784;SDS011;41709;52.536;5.688;2023-08-12T01:06:21;5.78;;;4.10;;
55784;SDS011;41709;52.536;5.688;2023-08-12T01:08:48;6.43;;;4.45;;
55784;SDS011;41709;52.536;5.688;2023-08-12T01:13:58;9.23;;;4.20;;
55784;SDS011;41709;52.536;5.688;2023-08-12T01:16:26;5.95;;;4.30;;
55784;SDS011;41709;52.536;5.688;2023-08-12T01:18:55;6.47;;;4.57;;
55784;SDS011;41709;52.536;5.688;2023-08-12T01:21:21;9.50;;;4.03;;
55784;SDS011;41709;52.536;5.688;2023-08-12T01:23:51;10.05;;;4.40;;
55784;SDS011;41709;52.536;5.688;2023-08-12T01:26:17;10.40;;;3.97;;
55784;SDS011;41709;52.536;5.688;2023-08-12T01:28:43;8.55;;;4.22;;
55784;SDS011;41709;52.536;5.688;2023-08-12T01:31:11;6.65;;;4.20;;
55784;SDS011;41709;52.536;5.688;2023-08-12T01:33:55;7.47;;;3.92;;
55784;SDS011;41709;52.536;5.688;2023-08-12T01:36:27;5.97;;;3.88;;
55784;SDS011;41709;52.536;5.688;2023-08-12T01:41:24;9.20;;;4.40;;
55784;SDS011;41709;52.536;5.688;2023-08-12T01:43:50;5.65;;;4.10;;
55784;SDS011;41709;52.536;5.688;2023-08-12T01:46:16;7.65;;;4.50;;
55784;SDS011;41709;52.536;5.688;2023-08-12T01:48:42;7.75;;;4.22;;
55784;SDS011;41709;52.536;5.688;2023-08-12T01:51:08;8.52;;;4.80;;
55784;SDS011;41709;52.536;5.688;2023-08-12T01:53:33;5.40;;;3.35;;
55784;SDS011;41709;52.536;5.688;2023-08-12T01:55:59;6.47;;;3.83;;
55784;SDS011;41709;52.536;5.688;2023-08-12T01:58:24;4.97;;;3.80;;
55784;SDS011;41709;52.536;5.688;2023-08-12T02:00:51;11.80;;;4.38;;
55784;SDS011;41709;52.536;5.688;2023-08-12T02:03:17;4.95;;;3.97;;
55784;SDS011;41709;52.536;5.688;2023-08-12T02:05:43;11.07;;;4.07;;
55784;SDS011;41709;52.536;5.688;2023-08-12T02:08:08;7.90;;;4.45;;
55784;SDS011;41709;52.536;5.688;2023-08-12T02:10:34;7.28;;;4.22;;
55784;SDS011;41709;52.536;5.688;2023-08-12T02:13:00;5.05;;;4.10;;
55784;SDS011;41709;52.536;5.688;2023-08-12T02:15:27;7.97;;;4.75;;
55784;SDS011;41709;52.536;5.688;2023-08-12T02:17:53;8.35;;;4.60;;
55784;SDS011;41709;52.536;5.688;2023-08-12T02:20:19;8.88;;;3.90;;
55784;SDS011;41709;52.536;5.688;2023-08-12T02:22:44;4.30;;;3.90;;
55784;SDS011;41709;52.536;5.688;2023-08-12T02:25:10;5.72;;;3.80;;
55784;SDS011;41709;52.536;5.688;2023-08-12T02:27:36;7.97;;;4.38;;
55784;SDS011;41709;52.536;5.688;2023-08-12T02:30:01;11.95;;;4.72;;
55784;SDS011;41709;52.536;5.688;2023-08-12T02:32:27;6.55;;;3.95;;
55784;SDS011;41709;52.536;5.688;2023-08-12T02:34:53;8.38;;;4.03;;
55784;SDS011;41709;52.536;5.688;2023-08-12T02:37:18;7.00;;;3.95;;
55784;SDS011;41709;52.536;5.688;2023-08-12T02:39:44;7.22;;;3.97;;
55784;SDS011;41709;52.536;5.688;2023-08-12T02:42:09;7.20;;;4.60;;
55784;SDS011;41709;52.536;5.688;2023-08-12T02:44:35;7.72;;;4.88;;
55784;SDS011;41709;52.536;5.688;2023-08-12T02:47:00;8.43;;;5.20;;
55784;SDS011;41709;52.536;5.688;2023-08-12T02:49:26;8.18;;;5.30;;
55784;SDS011;41709;52.536;5.688;2023-08-12T02:51:52;5.72;;;4.78;;
55784;SDS011;41709;52.536;5.688;2023-08-12T02:54:18;8.90;;;4.88;;
55784;SDS011;41709;52.536;5.688;2023-08-12T02:56:43;7.45;;;4.93;;
55784;SDS011;41709;52.536;5.688;2023-08-12T02:59:09;10.43;;;4.75;;
55784;SDS011;41709;52.536;5.688;2023-08-12T03:01:35;7.85;;;4.45;;
55784;SDS011;41709;52.536;5.688;2023-08-12T03:04:00;7.07;;;4.45;;
55784;SDS011;41709;52.536;5.688;2023-08-12T03:06:26;6.72;;;4.75;;
55784;SDS011;41709;52.536;5.688;2023-08-12T03:08:51;7.32;;;4.68;;
55784;SDS011;41709;52.536;5.688;2023-08-12T03:11:17;12.02;;;4.75;;
55784;SDS011;41709;52.536;5.688;2023-08-12T03:13:43;9.93;;;5.30;;
55784;SDS011;41709;52.536;5.688;2023-08-12T03:16:12;10.40;;;4.93;;
55784;SDS011;41709;52.536;5.688;2023-08-12T03:18:39;8.93;;;4.72;;
55784;SDS011;41709;52.536;5.688;2023-08-12T03:21:05;5.78;;;4.68;;
55784;SDS011;41709;52.536;5.688;2023-08-12T03:23:37;10.43;;;5.65;;
55784;SDS011;41709;52.536;5.688;2023-08-12T03:26:03;10.52;;;5.30;;
55784;SDS011;41709;52.536;5.688;2023-08-12T03:28:29;9.82;;;5.63;;
55784;SDS011;41709;52.536;5.688;2023-08-12T03:30:55;9.60;;;5.30;;
55784;SDS011;41709;52.536;5.688;2023-08-12T03:33:21;8.88;;;5.63;;
55784;SDS011;41709;52.536;5.688;2023-08-12T03:35:47;9.43;;;5.93;;
55784;SDS011;41709;52.536;5.688;2023-08-12T03:38:14;11.27;;;5.53;;
55784;SDS011;41709;52.536;5.688;2023-08-12T03:40:40;10.13;;;5.97;;
55784;SDS011;41709;52.536;5.688;2023-08-12T03:43:06;7.05;;;5.57;;
55784;SDS011;41709;52.536;5.688;2023-08-12T03:45:32;10.23;;;5.90;;
55784;SDS011;41709;52.536;5.688;2023-08-12T03:48:04;10.63;;;5.47;;
55784;SDS011;41709;52.536;5.688;2023-08-12T03:50:32;10.82;;;6.00;;
55784;SDS011;41709;52.536;5.688;2023-08-12T03:52:59;11.07;;;5.38;;
55784;SDS011;41709;52.536;5.688;2023-08-12T03:55:25;11.35;;;6.97;;
55784;SDS011;41709;52.536;5.688;2023-08-12T03:57:50;11.00;;;5.55;;
55784;SDS011;41709;52.536;5.688;2023-08-12T04:00:16;11.25;;;6.05;;
55784;SDS011;41709;52.536;5.688;2023-08-12T04:02:42;10.57;;;6.40;;
55784;SDS011;41709;52.536;5.688;2023-08-12T04:05:08;11.90;;;5.60;;
55784;SDS011;41709;52.536;5.688;2023-08-12T04:07:35;13.20;;;6.53;;
55784;SDS011;41709;52.536;5.688;2023-08-12T04:10:01;13.90;;;6.97;;
55784;SDS011;41709;52.536;5.688;2023-08-12T04:12:27;10.43;;;6.32;;
55784;SDS011;41709;52.536;5.688;2023-08-12T04:14:52;11.63;;;6.78;;
55784;SDS011;41709;52.536;5.688;2023-08-12T04:17:18;11.70;;;6.93;;
55784;SDS011;41709;52.536;5.688;2023-08-12T04:19:43;13.30;;;7.72;;
55784;SDS011;41709;52.536;5.688;2023-08-12T04:22:09;12.90;;;7.75;;
55784;SDS011;41709;52.536;5.688;2023-08-12T04:24:35;11.07;;;7.57;;
55784;SDS011;41709;52.536;5.688;2023-08-12T04:27:00;12.73;;;8.18;;
55784;SDS011;41709;52.536;5.688;2023-08-12T04:29:26;14.15;;;8.20;;
55784;SDS011;41709;52.536;5.688;2023-08-12T04:31:51;13.77;;;8.27;;
55784;SDS011;41709;52.536;5.688;2023-08-12T04:34:17;11.30;;;7.38;;
55784;SDS011;41709;52.536;5.688;2023-08-12T04:36:43;10.25;;;7.78;;
55784;SDS011;41709;52.536;5.688;2023-08-12T04:39:09;13.43;;;8.50;;
55784;SDS011;41709;52.536;5.688;2023-08-12T04:41:35;13.38;;;8.00;;
55784;SDS011;41709;52.536;5.688;2023-08-12T04:44:03;11.77;;;8.33;;
55784;SDS011;41709;52.536;5.688;2023-08-12T04:46:29;11.80;;;7.68;;
55784;SDS011;41709;52.536;5.688;2023-08-12T04:48:55;12.02;;;8.00;;
55784;SDS011;41709;52.536;5.688;2023-08-12T04:51:21;14.50;;;8.38;;
55784;SDS011;41709;52.536;5.688;2023-08-12T04:53:46;11.93;;;8.05;;
55784;SDS011;41709;52.536;5.688;2023-08-12T04:56:12;13.73;;;8.85;;
55784;SDS011;41709;52.536;5.688;2023-08-12T04:58:37;13.48;;;9.07;;
55784;SDS011;41709;52.536;5.688;2023-08-12T05:01:03;14.13;;;8.63;;
55784;SDS011;41709;52.536;5.688;2023-08-12T05:03:29;13.75;;;8.82;;
55784;SDS011;41709;52.536;5.688;2023-08-12T05:05:54;11.88;;;8.40;;
55784;SDS011;41709;52.536;5.688;2023-08-12T05:08:20;11.48;;;8.40;;
55784;SDS011;41709;52.536;5.688;2023-08-12T05:10:49;14.25;;;8.65;;
55784;SDS011;41709;52.536;5.688;2023-08-12T05:13:15;12.38;;;8.50;;
55784;SDS011;41709;52.536;5.688;2023-08-12T05:15:41;11.27;;;8.60;;
55784;SDS011;41709;52.536;5.688;2023-08-12T05:18:09;12.90;;;9.27;;
55784;SDS011;41709;52.536;5.688;2023-08-12T05:20:35;16.10;;;8.30;;
55784;SDS011;41709;52.536;5.688;2023-08-12T05:23:00;13.30;;;8.45;;
55784;SDS011;41709;52.536;5.688;2023-08-12T05:25:26;15.63;;;9.05;;
55784;SDS011;41709;52.536;5.688;2023-08-12T05:27:52;13.65;;;8.77;;
55784;SDS011;41709;52.536;5.688;2023-08-12T05:30:17;10.90;;;8.75;;
55784;SDS011;41709;52.536;5.688;2023-08-12T05:32:43;14.10;;;9.13;;
55784;SDS011;41709;52.536;5.688;2023-08-12T05:35:09;11.90;;;8.40;;
55784;SDS011;41709;52.536;5.688;2023-08-12T05:37:34;13.73;;;9.05;;
55784;SDS011;41709;52.536;5.688;2023-08-12T05:40:00;13.80;;;9.32;;
55784;SDS011;41709;52.536;5.688;2023-08-12T05:42:26;14.70;;;9.13;;
55784;SDS011;41709;52.536;5.688;2023-08-12T05:44:51;12.63;;;9.77;;
55784;SDS011;41709;52.536;5.688;2023-08-12T05:47:17;12.43;;;8.80;;
55784;SDS011;41709;52.536;5.688;2023-08-12T05:49:43;11.43;;;8.48;;
55784;SDS011;41709;52.536;5.688;2023-08-12T05:52:08;10.30;;;8.85;;
55784;SDS011;41709;52.536;5.688;2023-08-12T05:54:34;14.20;;;9.07;;
55784;SDS011;41709;52.536;5.688;2023-08-12T05:56:59;11.82;;;8.68;;
55784;SDS011;41709;52.536;5.688;2023-08-12T05:59:25;13.63;;;9.70;;
55784;SDS011;41709;52.536;5.688;2023-08-12T06:01:51;11.88;;;8.95;;
55784;SDS011;41709;52.536;5.688;2023-08-12T06:04:16;15.18;;;10.48;;
55784;SDS011;41709;52.536;5.688;2023-08-12T06:06:42;13.38;;;8.70;;
55784;SDS011;41709;52.536;5.688;2023-08-12T06:09:07;12.27;;;9.10;;
55784;SDS011;41709;52.536;5.688;2023-08-12T06:11:33;14.20;;;9.68;;
55784;SDS011;41709;52.536;5.688;2023-08-12T06:13:58;13.70;;;9.45;;
55784;SDS011;41709;52.536;5.688;2023-08-12T06:16:24;13.43;;;9.18;;
55784;SDS011;41709;52.536;5.688;2023-08-12T06:18:50;15.43;;;11.07;;
55784;SDS011;41709;52.536;5.688;2023-08-12T06:21:15;16.50;;;10.30;;
55784;SDS011;41709;52.536;5.688;2023-08-12T06:23:41;14.32;;;9.43;;
55784;SDS011;41709;52.536;5.688;2023-08-12T06:26:07;11.63;;;9.48;;
55784;SDS011;41709;52.536;5.688;2023-08-12T06:28:32;13.75;;;10.18;;
55784;SDS011;41709;52.536;5.688;2023-08-12T06:30:58;13.40;;;10.30;;
55784;SDS011;41709;52.536;5.688;2023-08-12T06:33:23;18.48;;;10.52;;
55784;SDS011;41709;52.536;5.688;2023-08-12T06:35:50;14.15;;;9.68;;
55784;SDS011;41709;52.536;5.688;2023-08-12T06:38:16;17.00;;;11.38;;
55784;SDS011;41709;52.536;5.688;2023-08-12T06:40:41;13.77;;;10.07;;
55784;SDS011;41709;52.536;5.688;2023-08-12T06:43:07;14.43;;;10.63;;
55784;SDS011;41709;52.536;5.688;2023-08-12T06:45:33;13.77;;;9.10;;
55784;SDS011;41709;52.536;5.688;2023-08-12T06:47:59;12.82;;;9.70;;
55784;SDS011;41709;52.536;5.688;2023-08-12T06:50:27;19.27;;;10.85;;
55784;SDS011;41709;52.536;5.688;2023-08-12T06:52:52;16.63;;;10.75;;
55784;SDS011;41709;52.536;5.688;2023-08-12T06:55:18;15.68;;;10.18;;
55784;SDS011;41709;52.536;5.688;2023-08-12T06:57:44;12.27;;;9.57;;
55784;SDS011;41709;52.536;5.688;2023-08-12T07:00:10;14.90;;;10.57;;
55784;SDS011;41709;52.536;5.688;2023-08-12T07:02:36;15.57;;;10.90;;
55784;SDS011;41709;52.536;5.688;2023-08-12T07:05:02;15.55;;;11.10;;
55784;SDS011;41709;52.536;5.688;2023-08-12T07:07:27;14.55;;;10.43;;
55784;SDS011;41709;52.536;5.688;2023-08-12T07:09:53;13.52;;;10.80;;
55784;SDS011;41709;52.536;5.688;2023-08-12T07:12:19;14.65;;;10.27;;
55784;SDS011;41709;52.536;5.688;2023-08-12T07:14:44;17.10;;;11.52;;
55784;SDS011;41709;52.536;5.688;2023-08-12T07:17:10;17.52;;;11.73;;
55784;SDS011;41709;52.536;5.688;2023-08-12T07:19:35;13.30;;;10.23;;
55784;SDS011;41709;52.536;5.688;2023-08-12T07:22:01;15.10;;;10.68;;
55784;SDS011;41709;52.536;5.688;2023-08-12T07:24:27;16.27;;;9.77;;
55784;SDS011;41709;52.536;5.688;2023-08-12T07:26:52;12.82;;;10.57;;
55784;SDS011;41709;52.536;5.688;2023-08-12T07:29:18;13.30;;;10.52;;
55784;SDS011;41709;52.536;5.688;2023-08-12T07:31:43;14.65;;;11.63;;
55784;SDS011;41709;52.536;5.688;2023-08-12T07:34:09;13.27;;;10.50;;
55784;SDS011;41709;52.536;5.688;2023-08-12T07:36:38;12.75;;;10.50;;
55784;SDS011;41709;52.536;5.688;2023-08-12T07:39:04;13.50;;;11.10;;
55784;SDS011;41709;52.536;5.688;2023-08-12T07:41:30;12.23;;;9.73;;
55784;SDS011;41709;52.536;5.688;2023-08-12T07:43:55;12.27;;;10.38;;
55784;SDS011;41709;52.536;5.688;2023-08-12T07:46:21;11.73;;;9.52;;
55784;SDS011;41709;52.536;5.688;2023-08-12T07:48:46;13.85;;;10.60;;
55784;SDS011;41709;52.536;5.688;2023-08-12T07:51:12;11.18;;;8.95;;
55784;SDS011;41709;52.536;5.688;2023-08-12T07:53:38;10.18;;;8.48;;
55784;SDS011;41709;52.536;5.688;2023-08-12T07:56:03;10.38;;;8.50;;
55784;SDS011;41709;52.536;5.688;2023-08-12T07:58:29;9.10;;;7.22;;
55784;SDS011;41709;52.536;5.688;2023-08-12T08:00:55;8.48;;;6.22;;
55784;SDS011;41709;52.536;5.688;2023-08-12T08:03:20;6.95;;;5.95;;
55784;SDS011;41709;52.536;5.688;2023-08-12T08:05:46;7.88;;;6.55;;
55784;SDS011;41709;52.536;5.688;2023-08-12T08:08:12;8.10;;;5.43;;
55784;SDS011;41709;52.536;5.688;2023-08-12T08:10:38;7.20;;;4.60;;
55784;SDS011;41709;52.536;5.688;2023-08-12T08:13:04;4.80;;;4.07;;
55784;SDS011;41709;52.536;5.688;2023-08-12T08:15:29;3.55;;;2.85;;
55784;SDS011;41709;52.536;5.688;2023-08-12T08:17:55;3.55;;;2.72;;
55784;SDS011;41709;52.536;5.688;2023-08-12T08:20:20;3.30;;;2.72;;
55784;SDS011;41709;52.536;5.688;2023-08-12T08:22:46;3.08;;;2.72;;
55784;SDS011;41709;52.536;5.688;2023-08-12T08:25:12;3.83;;;2.60;;
55784;SDS011;41709;52.536;5.688;2023-08-12T08:27:37;2.55;;;2.25;;
55784;SDS011;41709;52.536;5.688;2023-08-12T08:30:03;2.00;;;1.80;;
55784;SDS011;41709;52.536;5.688;2023-08-12T08:32:30;3.38;;;2.08;;
55784;SDS011;41709;52.536;5.688;2023-08-12T08:34:55;2.75;;;2.10;;
55784;SDS011;41709;52.536;5.688;2023-08-12T08:37:21;2.47;;;2.00;;
55784;SDS011;41709;52.536;5.688;2023-08-12T08:39:47;2.53;;;1.70;;
55784;SDS011;41709;52.536;5.688;2023-08-12T08:42:12;2.83;;;2.10;;
55784;SDS011;41709;52.536;5.688;2023-08-12T08:44:41;2.17;;;1.67;;
55784;SDS011;41709;52.536;5.688;2023-08-12T08:47:08;3.08;;;2.13;;
55784;SDS011;41709;52.536;5.688;2023-08-12T08:49:34;3.03;;;1.60;;
55784;SDS011;41709;52.536;5.688;2023-08-12T08:52:00;2.33;;;1.50;;
55784;SDS011;41709;52.536;5.688;2023-08-12T08:54:27;1.33;;;1.02;;
55784;SDS011;41709;52.536;5.688;2023-08-12T08:56:52;2.80;;;1.40;;
55784;SDS011;41709;52.536;5.688;2023-08-12T08:59:18;3.95;;;1.40;;
55784;SDS011;41709;52.536;5.688;2023-08-12T09:01:46;1.27;;;1.17;;
55784;SDS011;41709;52.536;5.688;2023-08-12T09:04:13;2.08;;;1.20;;
55784;SDS011;41709;52.536;5.688;2023-08-12T09:06:41;4.07;;;1.60;;
55784;SDS011;41709;52.536;5.688;2023-08-12T09:09:10;1.52;;;1.20;;
55784;SDS011;41709;52.536;5.688;2023-08-12T09:12:04;2.35;;;1.50;;
55784;SDS011;41709;52.536;5.688;2023-08-12T09:14:56;1.20;;;1.10;;
55784;SDS011;41709;52.536;5.688;2023-08-12T09:17:22;1.38;;;1.20;;
55784;SDS011;41709;52.536;5.688;2023-08-12T09:19:47;1.23;;;0.90;;
55784;SDS011;41709;52.536;5.688;2023-08-12T09:22:14;1.27;;;1.00;;
55784;SDS011;41709;52.536;5.688;2023-08-12T09:24:40;1.10;;;1.00;;
55784;SDS011;41709;52.536;5.688;2023-08-12T09:27:05;2.38;;;1.10;;
55784;SDS011;41709;52.536;5.688;2023-08-12T09:29:32;1.55;;;0.95;;
55784;SDS011;41709;52.536;5.688;2023-08-12T09:34:37;1.08;;;0.98;;
55784;SDS011;41709;52.536;5.688;2023-08-12T09:37:13;2.50;;;0.90;;
55784;SDS011;41709;52.536;5.688;2023-08-12T09:39:39;1.42;;;0.52;;
55784;SDS011;41709;52.536;5.688;2023-08-12T09:42:05;0.40;;;0.35;;
55784;SDS011;41709;52.536;5.688;2023-08-12T09:44:34;2.08;;;0.47;;
55784;SDS011;41709;52.536;5.688;2023-08-12T09:47:00;2.35;;;0.90;;
55784;SDS011;41709;52.536;5.688;2023-08-12T09:49:26;3.47;;;0.85;;
55784;SDS011;41709;52.536;5.688;2023-08-12T09:51:52;2.25;;;1.02;;
55784;SDS011;41709;52.536;5.688;2023-08-12T09:54:18;9.48;;;2.95;;
55784;SDS011;41709;52.536;5.688;2023-08-12T09:56:45;3.20;;;1.23;;
55784;SDS011;41709;52.536;5.688;2023-08-12T09:59:14;3.35;;;1.17;;
55784;SDS011;41709;52.536;5.688;2023-08-12T10:01:48;4.90;;;1.45;;
55784;SDS011;41709;52.536;5.688;2023-08-12T10:04:15;4.68;;;2.20;;
55784;SDS011;41709;52.536;5.688;2023-08-12T10:06:43;3.72;;;1.55;;
55784;SDS011;41709;52.536;5.688;2023-08-12T10:09:10;6.25;;;2.17;;
55784;SDS011;41709;52.536;5.688;2023-08-12T10:11:36;4.95;;;1.52;;
55784;SDS011;41709;52.536;5.688;2023-08-12T10:14:03;4.65;;;1.25;;
55784;SDS011;41709;52.536;5.688;2023-08-12T10:16:29;9.95;;;1.52;;
55784;SDS011;41709;52.536;5.688;2023-08-12T10:18:56;4.28;;;1.52;;
55784;SDS011;41709;52.536;5.688;2023-08-12T10:21:23;3.90;;;1.50;;
55784;SDS011;41709;52.536;5.688;2023-08-12T10:23:49;4.82;;;1.38;;
55784;SDS011;41709;52.536;5.688;2023-08-12T10:26:16;6.75;;;1.45;;
55784;SDS011;41709;52.536;5.688;2023-08-12T10:28:42;4.03;;;1.30;;
55784;SDS011;41709;52.536;5.688;2023-08-12T10:31:10;6.80;;;1.70;;
55784;SDS011;41709;52.536;5.688;2023-08-12T10:33:37;6.18;;;1.73;;
55784;SDS011;41709;52.536;5.688;2023-08-12T10:36:04;6.88;;;1.77;;
55784;SDS011;41709;52.536;5.688;2023-08-12T10:38:31;5.57;;;2.13;;
55784;SDS011;41709;52.536;5.688;2023-08-12T10:44:01;5.97;;;1.40;;
55784;SDS011;41709;52.536;5.688;2023-08-12T10:46:33;6.45;;;1.67;;
55784;SDS011;41709;52.536;5.688;2023-08-12T10:49:07;7.30;;;1.88;;
55784;SDS011;41709;52.536;5.688;2023-08-12T10:51:46;5.10;;;1.40;;
55784;SDS011;41709;52.536;5.688;2023-08-12T10:54:16;4.75;;;1.50;;
55784;SDS011;41709;52.536;5.688;2023-08-12T11:02:15;3.33;;;1.40;;
55784;SDS011;41709;52.536;5.688;2023-08-12T11:04:51;4.03;;;1.55;;
55784;SDS011;41709;52.536;5.688;2023-08-12T11:10:04;6.47;;;1.95;;
55784;SDS011;41709;52.536;5.688;2023-08-12T11:12:48;6.75;;;2.58;;
55784;SDS011;41709;52.536;5.688;2023-08-12T11:15:33;6.22;;;1.35;;
55784;SDS011;41709;52.536;5.688;2023-08-12T11:18:05;4.13;;;1.38;;
55784;SDS011;41709;52.536;5.688;2023-08-12T11:20:35;6.05;;;1.60;;
55784;SDS011;41709;52.536;5.688;2023-08-12T11:23:05;6.35;;;2.45;;
55784;SDS011;41709;52.536;5.688;2023-08-12T11:25:32;6.82;;;1.40;;
55784;SDS011;41709;52.536;5.688;2023-08-12T11:27:59;6.15;;;1.30;;
55784;SDS011;41709;52.536;5.688;2023-08-12T11:30:25;7.30;;;1.20;;
55784;SDS011;41709;52.536;5.688;2023-08-12T11:32:53;5.28;;;1.23;;
55784;SDS011;41709;52.536;5.688;2023-08-12T11:35:20;9.07;;;1.55;;
55784;SDS011;41709;52.536;5.688;2023-08-12T11:37:47;6.35;;;1.50;;
55784;SDS011;41709;52.536;5.688;2023-08-12T11:40:15;4.05;;;1.55;;
55784;SDS011;41709;52.536;5.688;2023-08-12T11:42:43;5.40;;;1.35;;
55784;SDS011;41709;52.536;5.688;2023-08-12T11:45:09;7.95;;;2.47;;
55784;SDS011;41709;52.536;5.688;2023-08-12T11:47:37;5.47;;;1.65;;
55784;SDS011;41709;52.536;5.688;2023-08-12T11:50:04;9.93;;;2.20;;
55784;SDS011;41709;52.536;5.688;2023-08-12T11:52:31;5.47;;;1.48;;
55784;SDS011;41709;52.536;5.688;2023-08-12T11:54:57;5.97;;;1.48;;
55784;SDS011;41709;52.536;5.688;2023-08-12T11:57:23;13.82;;;2.92;;
55784;SDS011;41709;52.536;5.688;2023-08-12T11:59:51;5.65;;;1.35;;
55784;SDS011;41709;52.536;5.688;2023-08-12T12:02:18;4.70;;;1.38;;
55784;SDS011;41709;52.536;5.688;2023-08-12T12:04:44;10.05;;;1.90;;
55784;SDS011;41709;52.536;5.688;2023-08-12T12:07:16;5.40;;;1.30;;
55784;SDS011;41709;52.536;5.688;2023-08-12T12:09:43;10.05;;;1.45;;
55784;SDS011;41709;52.536;5.688;2023-08-12T12:12:09;6.13;;;1.55;;
55784;SDS011;41709;52.536;5.688;2023-08-12T12:14:35;6.05;;;1.38;;
55784;SDS011;41709;52.536;5.688;2023-08-12T12:17:06;5.68;;;1.42;;
55784;SDS011;41709;52.536;5.688;2023-08-12T12:19:32;6.18;;;0.90;;
55784;SDS011;41709;52.536;5.688;2023-08-12T12:21:58;5.15;;;1.40;;
55784;SDS011;41709;52.536;5.688;2023-08-12T12:24:30;8.32;;;1.40;;
55784;SDS011;41709;52.536;5.688;2023-08-12T12:26:56;6.78;;;1.20;;
55784;SDS011;41709;52.536;5.688;2023-08-12T12:29:22;4.85;;;1.20;;
55784;SDS011;41709;52.536;5.688;2023-08-12T12:31:47;7.15;;;1.50;;
55784;SDS011;41709;52.536;5.688;2023-08-12T12:34:13;6.07;;;1.85;;
55784;SDS011;41709;52.536;5.688;2023-08-12T12:36:39;5.60;;;1.20;;
55784;SDS011;41709;52.536;5.688;2023-08-12T12:39:05;10.38;;;1.63;;
55784;SDS011;41709;52.536;5.688;2023-08-12T12:41:32;6.95;;;1.35;;
55784;SDS011;41709;52.536;5.688;2023-08-12T12:44:01;7.63;;;1.80;;
55784;SDS011;41709;52.536;5.688;2023-08-12T12:46:27;6.43;;;1.88;;
55784;SDS011;41709;52.536;5.688;2023-08-12T12:48:53;7.32;;;1.10;;
55784;SDS011;41709;52.536;5.688;2023-08-12T12:51:18;5.93;;;1.45;;
55784;SDS011;41709;52.536;5.688;2023-08-12T12:53:44;6.43;;;1.50;;
55784;SDS011;41709;52.536;5.688;2023-08-12T12:56:09;10.43;;;1.70;;
55784;SDS011;41709;52.536;5.688;2023-08-12T12:58:36;10.95;;;1.90;;
55784;SDS011;41709;52.536;5.688;2023-08-12T13:01:02;8.32;;;1.85;;
55784;SDS011;41709;52.536;5.688;2023-08-12T13:03:29;9.23;;;1.70;;
55784;SDS011;41709;52.536;5.688;2023-08-12T13:05:58;7.57;;;2.95;;
55784;SDS011;41709;52.536;5.688;2023-08-12T13:08:24;11.27;;;1.70;;
55784;SDS011;41709;52.536;5.688;2023-08-12T13:10:50;7.15;;;1.83;;
55784;SDS011;41709;52.536;5.688;2023-08-12T13:13:16;9.45;;;1.75;;
55784;SDS011;41709;52.536;5.688;2023-08-12T13:15:43;10.00;;;1.50;;
55784;SDS011;41709;52.536;5.688;2023-08-12T13:18:09;6.90;;;1.63;;
55784;SDS011;41709;52.536;5.688;2023-08-12T13:20:35;7.47;;;1.92;;
55784;SDS011;41709;52.536;5.688;2023-08-12T13:23:01;6.68;;;1.30;;
55784;SDS011;41709;52.536;5.688;2023-08-12T13:25:31;6.07;;;1.42;;
55784;SDS011;41709;52.536;5.688;2023-08-12T13:28:01;5.47;;;1.45;;
55784;SDS011;41709;52.536;5.688;2023-08-12T13:30:29;9.20;;;2.00;;
55784;SDS011;41709;52.536;5.688;2023-08-12T13:32:55;6.53;;;1.55;;
55784;SDS011;41709;52.536;5.688;2023-08-12T13:35:22;6.75;;;1.92;;
55784;SDS011;41709;52.536;5.688;2023-08-12T13:37:51;9.40;;;1.50;;
55784;SDS011;41709;52.536;5.688;2023-08-12T13:40:16;6.13;;;1.65;;
55784;SDS011;41709;52.536;5.688;2023-08-12T13:42:42;10.38;;;2.03;;
55784;SDS011;41709;52.536;5.688;2023-08-12T13:45:09;10.38;;;2.28;;
55784;SDS011;41709;52.536;5.688;2023-08-12T13:47:35;4.28;;;1.60;;
55784;SDS011;41709;52.536;5.688;2023-08-12T13:50:01;7.45;;;1.80;;
55784;SDS011;41709;52.536;5.688;2023-08-12T13:52:27;4.78;;;1.38;;
55784;SDS011;41709;52.536;5.688;2023-08-12T13:54:53;6.97;;;2.30;;
55784;SDS011;41709;52.536;5.688;2023-08-12T13:57:18;8.68;;;1.95;;
55784;SDS011;41709;52.536;5.688;2023-08-12T13:59:44;7.32;;;2.55;;
55784;SDS011;41709;52.536;5.688;2023-08-12T14:02:10;6.57;;;1.80;;
55784;SDS011;41709;52.536;5.688;2023-08-12T14:04:36;6.97;;;1.58;;
55784;SDS011;41709;52.536;5.688;2023-08-12T14:07:02;7.05;;;1.48;;
55784;SDS011;41709;52.536;5.688;2023-08-12T14:09:28;4.43;;;2.05;;
55784;SDS011;41709;52.536;5.688;2023-08-12T14:11:54;6.97;;;1.50;;
55784;SDS011;41709;52.536;5.688;2023-08-12T14:14:19;5.82;;;1.45;;
55784;SDS011;41709;52.536;5.688;2023-08-12T14:16:45;5.40;;;1.52;;
55784;SDS011;41709;52.536;5.688;2023-08-12T14:19:11;9.38;;;1.67;;
55784;SDS011;41709;52.536;5.688;2023-08-12T14:21:36;6.75;;;2.00;;
55784;SDS011;41709;52.536;5.688;2023-08-12T14:24:02;6.45;;;1.60;;
55784;SDS011;41709;52.536;5.688;2023-08-12T14:26:28;6.75;;;2.15;;
55784;SDS011;41709;52.536;5.688;2023-08-12T14:28:53;6.13;;;1.80;;
55784;SDS011;41709;52.536;5.688;2023-08-12T14:31:19;5.10;;;1.45;;
55784;SDS011;41709;52.536;5.688;2023-08-12T14:33:44;4.63;;;1.42;;
55784;SDS011;41709;52.536;5.688;2023-08-12T14:36:10;7.30;;;1.10;;
55784;SDS011;41709;52.536;5.688;2023-08-12T14:38:35;9.10;;;1.70;;
55784;SDS011;41709;52.536;5.688;2023-08-12T14:41:01;7.03;;;1.60;;
55784;SDS011;41709;52.536;5.688;2023-08-12T14:43:27;6.72;;;1.58;;
55784;SDS011;41709;52.536;5.688;2023-08-12T14:45:52;8.07;;;2.40;;
55784;SDS011;41709;52.536;5.688;2023-08-12T14:48:18;6.97;;;1.75;;
55784;SDS011;41709;52.536;5.688;2023-08-12T14:50:44;7.70;;;1.90;;
55784;SDS011;41709;52.536;5.688;2023-08-12T14:53:10;7.78;;;1.83;;
55784;SDS011;41709;52.536;5.688;2023-08-12T14:55:35;9.00;;;1.98;;
55784;SDS011;41709;52.536;5.688;2023-08-12T14:58:01;4.85;;;1.33;;